Terminal Aerodrome Forecast
Issued by NWS Pittsburgh, PA

Home | Current Version | Previous Version | Text Only | Print | Product List | Glossary On
Versions: 1 2 3 4 5 6 7 8 9 10 11 12 13 14 15 16 17 18 19 20 21 22 23 24 25 26 27 28 29
000
FTUS41 KPBZ 010500
TAFPIT
TAF
KPIT 010534Z 0106/0212 VRB02KT P6SM SKC
     FM010700 VRB03KT 5SM BR SKC
     FM011400 VRB03KT P6SM FEW050
     FM012100 17007KT P6SM VCTS BKN050CB
     FM020300 15004KT P6SM BKN035=

USA.gov is the U.S. government's official web portal to all federal, state and local government web resources and services.